sensor_id;sensor_type;location;lat;lon;timestamp;temperature;humidity
4433;DHT22;2229;48.708;9.706;2023-06-10T00:01:48;18.20;80.80
4433;DHT22;2229;48.708;9.706;2023-06-10T00:04:15;18.10;80.70
4433;DHT22;2229;48.708;9.706;2023-06-10T00:06:43;18.10;80.70
4433;DHT22;2229;48.708;9.706;2023-06-10T00:09:10;18.10;80.80
4433;DHT22;2229;48.708;9.706;2023-06-10T00:11:40;18.10;81.00
4433;DHT22;2229;48.708;9.706;2023-06-10T00:14:07;18.10;81.10
4433;DHT22;2229;48.708;9.706;2023-06-10T00:16:37;18.00;81.00
4433;DHT22;2229;48.708;9.706;2023-06-10T00:19:04;18.00;81.10
4433;DHT22;2229;48.708;9.706;2023-06-10T00:21:33;18.00;81.20
4433;DHT22;2229;48.708;9.706;2023-06-10T00:24:04;17.90;81.30
4433;DHT22;2229;48.708;9.706;2023-06-10T00:26:32;17.90;81.40
4433;DHT22;2229;48.708;9.706;2023-06-10T00:28:59;17.90;81.60
4433;DHT22;2229;48.708;9.706;2023-06-10T00:31:27;17.80;81.70
4433;DHT22;2229;48.708;9.706;2023-06-10T00:33:56;17.80;81.80
4433;DHT22;2229;48.708;9.706;2023-06-10T00:36:24;17.80;82.00
4433;DHT22;2229;48.708;9.706;2023-06-10T00:38:52;17.70;81.90
4433;DHT22;2229;48.708;9.706;2023-06-10T00:41:19;17.70;82.00
4433;DHT22;2229;48.708;9.706;2023-06-10T00:43:46;17.70;82.20
4433;DHT22;2229;48.708;9.706;2023-06-10T00:46:14;17.70;82.40
4433;DHT22;2229;48.708;9.706;2023-06-10T00:48:43;17.70;82.40
4433;DHT22;2229;48.708;9.706;2023-06-10T00:51:13;17.70;82.70
4433;DHT22;2229;48.708;9.706;2023-06-10T00:53:41;17.70;83.20
4433;DHT22;2229;48.708;9.706;2023-06-10T00:56:09;17.70;82.80
4433;DHT22;2229;48.708;9.706;2023-06-10T00:58:38;17.70;83.10
4433;DHT22;2229;48.708;9.706;2023-06-10T01:01:05;17.70;83.10
4433;DHT22;2229;48.708;9.706;2023-06-10T01:03:32;17.70;83.10
4433;DHT22;2229;48.708;9.706;2023-06-10T01:06:08;17.70;83.20
4433;DHT22;2229;48.708;9.706;2023-06-10T01:08:44;17.60;83.30
4433;DHT22;2229;48.708;9.706;2023-06-10T01:11:19;17.60;83.40
4433;DHT22;2229;48.708;9.706;2023-06-10T01:13:49;17.60;83.50
4433;DHT22;2229;48.708;9.706;2023-06-10T01:16:18;17.50;83.50
4433;DHT22;2229;48.708;9.706;2023-06-10T01:18:47;17.50;83.70
4433;DHT22;2229;48.708;9.706;2023-06-10T01:21:20;17.50;83.90
4433;DHT22;2229;48.708;9.706;2023-06-10T01:23:51;17.50;83.90
4433;DHT22;2229;48.708;9.706;2023-06-10T01:26:23;17.50;84.00
4433;DHT22;2229;48.708;9.706;2023-06-10T01:28:57;17.40;84.00
4433;DHT22;2229;48.708;9.706;2023-06-10T01:31:33;17.40;84.00
4433;DHT22;2229;48.708;9.706;2023-06-10T01:34:08;17.30;84.00
4433;DHT22;2229;48.708;9.706;2023-06-10T01:36:38;17.20;84.10
4433;DHT22;2229;48.708;9.706;2023-06-10T01:39:08;17.20;84.40
4433;DHT22;2229;48.708;9.706;2023-06-10T01:41:37;17.10;84.60
4433;DHT22;2229;48.708;9.706;2023-06-10T01:44:05;17.00;84.70
4433;DHT22;2229;48.708;9.706;2023-06-10T01:46:33;17.00;84.90
4433;DHT22;2229;48.708;9.706;2023-06-10T01:49:00;16.90;85.00
4433;DHT22;2229;48.708;9.706;2023-06-10T01:51:27;16.90;85.30
4433;DHT22;2229;48.708;9.706;2023-06-10T01:53:57;16.80;85.40
4433;DHT22;2229;48.708;9.706;2023-06-10T01:56:24;16.80;85.60
4433;DHT22;2229;48.708;9.706;2023-06-10T01:58:51;16.70;85.80
4433;DHT22;2229;48.708;9.706;2023-06-10T02:01:21;16.70;86.00
4433;DHT22;2229;48.708;9.706;2023-06-10T02:03:48;16.70;86.20
4433;DHT22;2229;48.708;9.706;2023-06-10T02:06:16;16.60;86.30
4433;DHT22;2229;48.708;9.706;2023-06-10T02:08:43;16.60;86.50
4433;DHT22;2229;48.708;9.706;2023-06-10T02:11:13;16.60;86.60
4433;DHT22;2229;48.708;9.706;2023-06-10T02:13:40;16.60;86.80
4433;DHT22;2229;48.708;9.706;2023-06-10T02:16:07;16.60;87.00
4433;DHT22;2229;48.708;9.706;2023-06-10T02:18:35;16.60;87.20
4433;DHT22;2229;48.708;9.706;2023-06-10T02:21:02;16.60;87.30
4433;DHT22;2229;48.708;9.706;2023-06-10T02:23:29;16.60;87.40
4433;DHT22;2229;48.708;9.706;2023-06-10T02:25:56;16.60;87.40
4433;DHT22;2229;48.708;9.706;2023-06-10T02:28:26;16.50;87.50
4433;DHT22;2229;48.708;9.706;2023-06-10T02:30:53;16.60;87.80
4433;DHT22;2229;48.708;9.706;2023-06-10T02:33:21;16.50;87.80
4433;DHT22;2229;48.708;9.706;2023-06-10T02:35:49;16.50;87.90
4433;DHT22;2229;48.708;9.706;2023-06-10T02:38:17;16.50;88.00
4433;DHT22;2229;48.708;9.706;2023-06-10T02:40:44;16.50;88.10
4433;DHT22;2229;48.708;9.706;2023-06-10T02:43:12;16.50;89.00
4433;DHT22;2229;48.708;9.706;2023-06-10T02:45:41;16.50;88.40
4433;DHT22;2229;48.708;9.706;2023-06-10T02:48:10;16.40;88.40
4433;DHT22;2229;48.708;9.706;2023-06-10T02:50:37;16.50;88.60
4433;DHT22;2229;48.708;9.706;2023-06-10T02:53:24;16.40;88.50
4433;DHT22;2229;48.708;9.706;2023-06-10T02:55:57;16.50;88.70
4433;DHT22;2229;48.708;9.706;2023-06-10T02:58:26;16.40;89.30
4433;DHT22;2229;48.708;9.706;2023-06-10T03:00:55;16.40;88.60
4433;DHT22;2229;48.708;9.706;2023-06-10T03:03:24;16.40;88.70
4433;DHT22;2229;48.708;9.706;2023-06-10T03:06:01;16.40;88.70
4433;DHT22;2229;48.708;9.706;2023-06-10T03:08:29;16.30;88.70
4433;DHT22;2229;48.708;9.706;2023-06-10T03:10:58;16.30;88.90
4433;DHT22;2229;48.708;9.706;2023-06-10T03:13:26;16.20;88.90
4433;DHT22;2229;48.708;9.706;2023-06-10T03:15:55;16.20;89.00
4433;DHT22;2229;48.708;9.706;2023-06-10T03:18:26;16.20;89.10
4433;DHT22;2229;48.708;9.706;2023-06-10T03:20:54;16.20;89.30
4433;DHT22;2229;48.708;9.706;2023-06-10T03:23:22;16.20;89.30
4433;DHT22;2229;48.708;9.706;2023-06-10T03:25:49;16.10;89.50
4433;DHT22;2229;48.708;9.706;2023-06-10T03:28:18;16.10;89.70
4433;DHT22;2229;48.708;9.706;2023-06-10T03:30:47;16.20;89.90
4433;DHT22;2229;48.708;9.706;2023-06-10T03:33:16;16.10;90.00
4433;DHT22;2229;48.708;9.706;2023-06-10T03:35:44;16.10;90.00
4433;DHT22;2229;48.708;9.706;2023-06-10T03:38:12;16.20;90.10
4433;DHT22;2229;48.708;9.706;2023-06-10T03:40:40;16.20;90.10
4433;DHT22;2229;48.708;9.706;2023-06-10T03:43:07;16.20;90.20
4433;DHT22;2229;48.708;9.706;2023-06-10T03:45:35;16.20;90.20
4433;DHT22;2229;48.708;9.706;2023-06-10T03:48:02;16.20;90.20
4433;DHT22;2229;48.708;9.706;2023-06-10T03:50:40;16.20;90.30
4433;DHT22;2229;48.708;9.706;2023-06-10T03:53:07;16.30;90.30
4433;DHT22;2229;48.708;9.706;2023-06-10T03:55:36;16.30;90.30
4433;DHT22;2229;48.708;9.706;2023-06-10T03:58:04;16.40;90.40
4433;DHT22;2229;48.708;9.706;2023-06-10T04:00:31;16.50;90.40
4433;DHT22;2229;48.708;9.706;2023-06-10T04:03:06;16.60;90.50
4433;DHT22;2229;48.708;9.706;2023-06-10T04:05:40;16.60;90.40
4433;DHT22;2229;48.708;9.706;2023-06-10T04:08:08;16.70;90.50
4433;DHT22;2229;48.708;9.706;2023-06-10T04:10:36;16.70;90.50
4433;DHT22;2229;48.708;9.706;2023-06-10T04:13:03;16.80;90.50
4433;DHT22;2229;48.708;9.706;2023-06-10T04:15:35;16.80;90.50
4433;DHT22;2229;48.708;9.706;2023-06-10T04:18:07;16.80;90.60
4433;DHT22;2229;48.708;9.706;2023-06-10T04:20:34;16.90;90.70
4433;DHT22;2229;48.708;9.706;2023-06-10T04:23:03;16.90;90.70
4433;DHT22;2229;48.708;9.706;2023-06-10T04:25:31;16.90;90.70
4433;DHT22;2229;48.708;9.706;2023-06-10T04:27:58;17.00;90.80
4433;DHT22;2229;48.708;9.706;2023-06-10T04:30:26;17.00;90.80
4433;DHT22;2229;48.708;9.706;2023-06-10T04:32:53;17.10;90.80
4433;DHT22;2229;48.708;9.706;2023-06-10T04:35:21;17.10;90.80
4433;DHT22;2229;48.708;9.706;2023-06-10T04:37:49;17.20;90.80
4433;DHT22;2229;48.708;9.706;2023-06-10T04:40:17;17.20;90.80
4433;DHT22;2229;48.708;9.706;2023-06-10T04:42:46;17.30;90.80
4433;DHT22;2229;48.708;9.706;2023-06-10T04:45:14;17.30;90.90
4433;DHT22;2229;48.708;9.706;2023-06-10T04:47:42;17.40;90.90
4433;DHT22;2229;48.708;9.706;2023-06-10T04:50:10;17.50;91.00
4433;DHT22;2229;48.708;9.706;2023-06-10T04:52:37;17.60;91.00
4433;DHT22;2229;48.708;9.706;2023-06-10T04:55:08;17.70;91.10
4433;DHT22;2229;48.708;9.706;2023-06-10T04:57:38;17.80;91.10
4433;DHT22;2229;48.708;9.706;2023-06-10T05:00:06;17.80;91.10
4433;DHT22;2229;48.708;9.706;2023-06-10T05:02:35;17.90;91.10
4433;DHT22;2229;48.708;9.706;2023-06-10T05:05:02;18.00;91.20
4433;DHT22;2229;48.708;9.706;2023-06-10T05:07:35;18.10;91.20
4433;DHT22;2229;48.708;9.706;2023-06-10T05:10:03;18.20;91.20
4433;DHT22;2229;48.708;9.706;2023-06-10T05:12:31;18.20;91.20
4433;DHT22;2229;48.708;9.706;2023-06-10T05:15:00;18.30;91.20
4433;DHT22;2229;48.708;9.706;2023-06-10T05:17:28;18.40;91.20
4433;DHT22;2229;48.708;9.706;2023-06-10T05:19:55;18.50;91.30
4433;DHT22;2229;48.708;9.706;2023-06-10T05:22:22;18.50;91.20
4433;DHT22;2229;48.708;9.706;2023-06-10T05:24:50;18.60;91.20
4433;DHT22;2229;48.708;9.706;2023-06-10T05:27:18;18.70;91.20
4433;DHT22;2229;48.708;9.706;2023-06-10T05:29:45;18.80;91.20
4433;DHT22;2229;48.708;9.706;2023-06-10T05:32:14;18.90;91.10
4433;DHT22;2229;48.708;9.706;2023-06-10T05:34:41;18.90;91.10
4433;DHT22;2229;48.708;9.706;2023-06-10T05:37:08;19.00;91.10
4433;DHT22;2229;48.708;9.706;2023-06-10T05:39:36;19.10;91.10
4433;DHT22;2229;48.708;9.706;2023-06-10T05:42:05;19.20;91.20
4433;DHT22;2229;48.708;9.706;2023-06-10T05:44:33;19.30;91.10
4433;DHT22;2229;48.708;9.706;2023-06-10T05:47:00;19.40;91.00
4433;DHT22;2229;48.708;9.706;2023-06-10T05:49:29;19.50;90.90
4433;DHT22;2229;48.708;9.706;2023-06-10T05:51:57;19.60;90.70
4433;DHT22;2229;48.708;9.706;2023-06-10T05:54:25;19.70;90.30
4433;DHT22;2229;48.708;9.706;2023-06-10T05:56:52;19.70;89.60
4433;DHT22;2229;48.708;9.706;2023-06-10T05:59:19;19.70;89.10
4433;DHT22;2229;48.708;9.706;2023-06-10T06:01:49;19.80;88.80
4433;DHT22;2229;48.708;9.706;2023-06-10T06:04:16;19.90;88.40
4433;DHT22;2229;48.708;9.706;2023-06-10T06:06:45;20.00;88.40
4433;DHT22;2229;48.708;9.706;2023-06-10T06:09:12;20.10;88.10
4433;DHT22;2229;48.708;9.706;2023-06-10T06:11:39;20.20;87.70
4433;DHT22;2229;48.708;9.706;2023-06-10T06:14:06;20.20;87.60
4433;DHT22;2229;48.708;9.706;2023-06-10T06:16:33;20.30;87.70
4433;DHT22;2229;48.708;9.706;2023-06-10T06:19:01;20.40;87.80
4433;DHT22;2229;48.708;9.706;2023-06-10T06:21:29;20.50;87.90
4433;DHT22;2229;48.708;9.706;2023-06-10T06:23:58;20.60;87.60
4433;DHT22;2229;48.708;9.706;2023-06-10T06:26:26;20.70;87.40
4433;DHT22;2229;48.708;9.706;2023-06-10T06:28:53;20.80;87.10
4433;DHT22;2229;48.708;9.706;2023-06-10T06:31:20;20.90;86.90
4433;DHT22;2229;48.708;9.706;2023-06-10T06:33:47;21.00;86.80
4433;DHT22;2229;48.708;9.706;2023-06-10T06:36:15;21.10;86.80
4433;DHT22;2229;48.708;9.706;2023-06-10T06:38:42;21.20;87.00
4433;DHT22;2229;48.708;9.706;2023-06-10T06:41:10;21.30;87.10
4433;DHT22;2229;48.708;9.706;2023-06-10T06:43:37;21.40;87.20
4433;DHT22;2229;48.708;9.706;2023-06-10T06:46:24;21.50;87.40
4433;DHT22;2229;48.708;9.706;2023-06-10T06:48:51;21.60;87.20
4433;DHT22;2229;48.708;9.706;2023-06-10T06:51:18;21.70;86.80
4433;DHT22;2229;48.708;9.706;2023-06-10T06:53:45;21.80;86.40
4433;DHT22;2229;48.708;9.706;2023-06-10T06:56:14;21.90;84.90
4433;DHT22;2229;48.708;9.706;2023-06-10T06:58:41;22.00;85.50
4433;DHT22;2229;48.708;9.706;2023-06-10T07:01:08;22.10;85.80
4433;DHT22;2229;48.708;9.706;2023-06-10T07:03:35;22.20;84.80
4433;DHT22;2229;48.708;9.706;2023-06-10T07:06:03;22.30;83.80
4433;DHT22;2229;48.708;9.706;2023-06-10T07:08:32;22.40;83.00
4433;DHT22;2229;48.708;9.706;2023-06-10T07:10:59;22.50;82.40
4433;DHT22;2229;48.708;9.706;2023-06-10T07:13:28;22.50;82.30
4433;DHT22;2229;48.708;9.706;2023-06-10T07:15:55;22.60;81.60
4433;DHT22;2229;48.708;9.706;2023-06-10T07:18:22;22.60;81.50
4433;DHT22;2229;48.708;9.706;2023-06-10T07:20:49;22.70;81.40
4433;DHT22;2229;48.708;9.706;2023-06-10T07:23:17;22.80;81.30
4433;DHT22;2229;48.708;9.706;2023-06-10T07:25:44;22.90;81.30
4433;DHT22;2229;48.708;9.706;2023-06-10T07:28:12;23.00;81.10
4433;DHT22;2229;48.708;9.706;2023-06-10T07:30:40;23.10;79.70
4433;DHT22;2229;48.708;9.706;2023-06-10T07:33:07;23.10;80.30
4433;DHT22;2229;48.708;9.706;2023-06-10T07:35:36;23.20;79.90
4433;DHT22;2229;48.708;9.706;2023-06-10T07:38:03;23.30;79.80
4433;DHT22;2229;48.708;9.706;2023-06-10T07:40:30;23.50;80.10
4433;DHT22;2229;48.708;9.706;2023-06-10T07:42:58;23.60;80.30
4433;DHT22;2229;48.708;9.706;2023-06-10T07:45:26;23.70;80.50
4433;DHT22;2229;48.708;9.706;2023-06-10T07:47:55;23.80;79.10
4433;DHT22;2229;48.708;9.706;2023-06-10T07:50:22;23.90;78.10
4433;DHT22;2229;48.708;9.706;2023-06-10T07:52:49;24.00;77.90
4433;DHT22;2229;48.708;9.706;2023-06-10T07:55:17;24.10;77.90
4433;DHT22;2229;48.708;9.706;2023-06-10T07:57:44;24.20;78.60
4433;DHT22;2229;48.708;9.706;2023-06-10T08:00:12;24.30;78.90
4433;DHT22;2229;48.708;9.706;2023-06-10T08:02:39;24.40;78.80
4433;DHT22;2229;48.708;9.706;2023-06-10T08:05:08;24.60;78.90
4433;DHT22;2229;48.708;9.706;2023-06-10T08:07:35;24.70;78.90
4433;DHT22;2229;48.708;9.706;2023-06-10T08:10:03;24.80;78.90
4433;DHT22;2229;48.708;9.706;2023-06-10T08:12:31;25.00;78.60
4433;DHT22;2229;48.708;9.706;2023-06-10T08:14:59;25.10;77.40
4433;DHT22;2229;48.708;9.706;2023-06-10T08:17:28;25.20;76.20
4433;DHT22;2229;48.708;9.706;2023-06-10T08:19:55;25.30;75.30
4433;DHT22;2229;48.708;9.706;2023-06-10T08:22:24;25.40;74.70
4433;DHT22;2229;48.708;9.706;2023-06-10T08:24:52;25.60;74.80
4433;DHT22;2229;48.708;9.706;2023-06-10T08:27:20;25.70;75.00
4433;DHT22;2229;48.708;9.706;2023-06-10T08:29:47;25.80;74.90
4433;DHT22;2229;48.708;9.706;2023-06-10T08:32:14;25.90;73.90
4433;DHT22;2229;48.708;9.706;2023-06-10T08:34:41;26.00;74.10
4433;DHT22;2229;48.708;9.706;2023-06-10T08:37:08;25.90;74.00
4433;DHT22;2229;48.708;9.706;2023-06-10T08:39:38;25.80;73.40
4433;DHT22;2229;48.708;9.706;2023-06-10T08:42:13;25.70;73.80
4433;DHT22;2229;48.708;9.706;2023-06-10T08:44:42;25.60;74.00
4433;DHT22;2229;48.708;9.706;2023-06-10T08:47:13;25.50;74.00
4433;DHT22;2229;48.708;9.706;2023-06-10T08:49:43;25.50;73.20
4433;DHT22;2229;48.708;9.706;2023-06-10T08:52:14;25.40;73.10
4433;DHT22;2229;48.708;9.706;2023-06-10T08:54:49;25.40;73.50
4433;DHT22;2229;48.708;9.706;2023-06-10T08:57:18;25.50;73.30
4433;DHT22;2229;48.708;9.706;2023-06-10T08:59:47;25.60;72.20
4433;DHT22;2229;48.708;9.706;2023-06-10T09:02:15;25.60;72.30
4433;DHT22;2229;48.708;9.706;2023-06-10T09:04:46;25.60;71.70
4433;DHT22;2229;48.708;9.706;2023-06-10T09:07:13;25.80;72.20
4433;DHT22;2229;48.708;9.706;2023-06-10T09:09:44;25.90;70.30
4433;DHT22;2229;48.708;9.706;2023-06-10T09:12:13;26.10;69.40
4433;DHT22;2229;48.708;9.706;2023-06-10T09:14:41;26.20;70.30
4433;DHT22;2229;48.708;9.706;2023-06-10T09:17:09;26.30;70.30
4433;DHT22;2229;48.708;9.706;2023-06-10T09:19:38;26.30;70.00
4433;DHT22;2229;48.708;9.706;2023-06-10T09:22:07;26.30;69.80
4433;DHT22;2229;48.708;9.706;2023-06-10T09:24:35;26.30;69.90
4433;DHT22;2229;48.708;9.706;2023-06-10T09:27:05;26.40;70.40
4433;DHT22;2229;48.708;9.706;2023-06-10T09:29:45;26.70;69.50
4433;DHT22;2229;48.708;9.706;2023-06-10T09:32:13;26.90;68.60
4433;DHT22;2229;48.708;9.706;2023-06-10T09:34:40;27.10;68.50
4433;DHT22;2229;48.708;9.706;2023-06-10T09:37:07;27.20;68.00
4433;DHT22;2229;48.708;9.706;2023-06-10T09:39:38;27.20;67.90
4433;DHT22;2229;48.708;9.706;2023-06-10T09:42:17;27.20;67.30
4433;DHT22;2229;48.708;9.706;2023-06-10T09:44:49;27.10;68.00
4433;DHT22;2229;48.708;9.706;2023-06-10T09:47:20;27.00;67.90
4433;DHT22;2229;48.708;9.706;2023-06-10T09:49:47;26.90;67.60
4433;DHT22;2229;48.708;9.706;2023-06-10T09:52:14;26.70;67.50
4433;DHT22;2229;48.708;9.706;2023-06-10T09:54:47;26.60;68.00
4433;DHT22;2229;48.708;9.706;2023-06-10T09:57:18;26.60;68.90
4433;DHT22;2229;48.708;9.706;2023-06-10T09:59:46;26.70;69.10
4433;DHT22;2229;48.708;9.706;2023-06-10T10:02:14;26.90;68.90
4433;DHT22;2229;48.708;9.706;2023-06-10T10:04:42;27.20;68.90
4433;DHT22;2229;48.708;9.706;2023-06-10T10:07:10;27.40;68.10
4433;DHT22;2229;48.708;9.706;2023-06-10T10:09:37;27.70;67.80
4433;DHT22;2229;48.708;9.706;2023-06-10T10:12:09;28.00;67.50
4433;DHT22;2229;48.708;9.706;2023-06-10T10:14:39;28.30;66.50
4433;DHT22;2229;48.708;9.706;2023-06-10T10:17:10;28.60;66.30
4433;DHT22;2229;48.708;9.706;2023-06-10T10:19:43;28.80;66.20
4433;DHT22;2229;48.708;9.706;2023-06-10T10:22:18;29.00;64.90
4433;DHT22;2229;48.708;9.706;2023-06-10T10:24:49;29.20;63.30
4433;DHT22;2229;48.708;9.706;2023-06-10T10:27:18;29.30;63.20
4433;DHT22;2229;48.708;9.706;2023-06-10T10:29:52;29.40;62.30
4433;DHT22;2229;48.708;9.706;2023-06-10T10:32:23;29.40;61.70
4433;DHT22;2229;48.708;9.706;2023-06-10T10:34:59;29.50;62.00
4433;DHT22;2229;48.708;9.706;2023-06-10T10:37:32;29.60;62.20
4433;DHT22;2229;48.708;9.706;2023-06-10T10:40:00;29.80;61.90
4433;DHT22;2229;48.708;9.706;2023-06-10T10:42:28;29.90;60.70
4433;DHT22;2229;48.708;9.706;2023-06-10T10:44:57;30.10;60.60
4433;DHT22;2229;48.708;9.706;2023-06-10T10:47:27;30.10;60.20
4433;DHT22;2229;48.708;9.706;2023-06-10T10:49:55;30.20;60.50
4433;DHT22;2229;48.708;9.706;2023-06-10T10:52:25;30.30;60.00
4433;DHT22;2229;48.708;9.706;2023-06-10T10:54:53;30.40;59.40
4433;DHT22;2229;48.708;9.706;2023-06-10T10:57:23;30.50;59.50
4433;DHT22;2229;48.708;9.706;2023-06-10T10:59:56;30.60;58.70
4433;DHT22;2229;48.708;9.706;2023-06-10T11:02:37;30.50;59.10
4433;DHT22;2229;48.708;9.706;2023-06-10T11:05:06;30.50;59.10
4433;DHT22;2229;48.708;9.706;2023-06-10T11:07:34;30.60;59.20
4433;DHT22;2229;48.708;9.706;2023-06-10T11:10:06;30.70;58.70
4433;DHT22;2229;48.708;9.706;2023-06-10T11:12:50;30.70;57.90
4433;DHT22;2229;48.708;9.706;2023-06-10T11:15:22;30.50;57.20
4433;DHT22;2229;48.708;9.706;2023-06-10T11:18:08;30.50;57.90
4433;DHT22;2229;48.708;9.706;2023-06-10T11:20:45;30.50;57.10
4433;DHT22;2229;48.708;9.706;2023-06-10T11:23:32;30.50;57.10
4433;DHT22;2229;48.708;9.706;2023-06-10T11:26:13;30.40;57.60
4433;DHT22;2229;48.708;9.706;2023-06-10T11:28:41;30.20;56.90
4433;DHT22;2229;48.708;9.706;2023-06-10T11:31:19;29.90;56.90
4433;DHT22;2229;48.708;9.706;2023-06-10T11:33:47;29.70;57.00
4433;DHT22;2229;48.708;9.706;2023-06-10T11:36:14;29.50;57.60
4433;DHT22;2229;48.708;9.706;2023-06-10T11:38:42;29.60;58.60
4433;DHT22;2229;48.708;9.706;2023-06-10T11:41:11;29.70;59.10
4433;DHT22;2229;48.708;9.706;2023-06-10T11:43:42;29.90;58.50
4433;DHT22;2229;48.708;9.706;2023-06-10T11:46:13;30.20;57.70
4433;DHT22;2229;48.708;9.706;2023-06-10T11:48:48;30.30;57.80
4433;DHT22;2229;48.708;9.706;2023-06-10T11:51:16;30.30;57.10
4433;DHT22;2229;48.708;9.706;2023-06-10T11:53:44;30.10;57.10
4433;DHT22;2229;48.708;9.706;2023-06-10T11:56:12;29.90;57.20
4433;DHT22;2229;48.708;9.706;2023-06-10T11:58:43;29.90;57.20
4433;DHT22;2229;48.708;9.706;2023-06-10T12:01:19;30.00;57.30
4433;DHT22;2229;48.708;9.706;2023-06-10T12:03:47;30.00;57.10
4433;DHT22;2229;48.708;9.706;2023-06-10T12:06:23;30.10;57.20
4433;DHT22;2229;48.708;9.706;2023-06-10T12:08:50;30.10;56.90
4433;DHT22;2229;48.708;9.706;2023-06-10T12:11:17;30.00;56.60
4433;DHT22;2229;48.708;9.706;2023-06-10T12:13:48;29.80;56.40
4433;DHT22;2229;48.708;9.706;2023-06-10T12:16:17;29.60;56.50
4433;DHT22;2229;48.708;9.706;2023-06-10T12:18:45;29.40;57.10
4433;DHT22;2229;48.708;9.706;2023-06-10T12:21:17;29.40;58.00
4433;DHT22;2229;48.708;9.706;2023-06-10T12:24:01;29.50;57.00
4433;DHT22;2229;48.708;9.706;2023-06-10T12:26:37;29.60;57.10
4433;DHT22;2229;48.708;9.706;2023-06-10T12:29:21;29.80;57.50
4433;DHT22;2229;48.708;9.706;2023-06-10T12:32:00;29.90;57.30
4433;DHT22;2229;48.708;9.706;2023-06-10T12:34:33;30.00;57.60
4433;DHT22;2229;48.708;9.706;2023-06-10T12:37:02;30.10;56.70
4433;DHT22;2229;48.708;9.706;2023-06-10T12:39:30;30.10;56.00
4433;DHT22;2229;48.708;9.706;2023-06-10T12:41:58;30.00;55.70
4433;DHT22;2229;48.708;9.706;2023-06-10T12:44:29;29.80;55.10
4433;DHT22;2229;48.708;9.706;2023-06-10T12:46:58;29.60;55.50
4433;DHT22;2229;48.708;9.706;2023-06-10T12:49:25;29.50;56.00
4433;DHT22;2229;48.708;9.706;2023-06-10T12:51:53;29.40;56.50
4433;DHT22;2229;48.708;9.706;2023-06-10T12:54:20;29.40;56.00
4433;DHT22;2229;48.708;9.706;2023-06-10T12:56:48;29.50;56.20
4433;DHT22;2229;48.708;9.706;2023-06-10T12:59:15;29.60;55.60
4433;DHT22;2229;48.708;9.706;2023-06-10T13:01:44;29.70;56.40
4433;DHT22;2229;48.708;9.706;2023-06-10T13:04:12;29.80;56.70
4433;DHT22;2229;48.708;9.706;2023-06-10T13:06:39;29.80;56.60
4433;DHT22;2229;48.708;9.706;2023-06-10T13:09:07;29.70;55.70
4433;DHT22;2229;48.708;9.706;2023-06-10T13:11:34;29.50;55.70
4433;DHT22;2229;48.708;9.706;2023-06-10T13:14:02;29.30;56.10
4433;DHT22;2229;48.708;9.706;2023-06-10T13:16:31;29.10;55.70
4433;DHT22;2229;48.708;9.706;2023-06-10T13:18:59;28.90;55.80
4433;DHT22;2229;48.708;9.706;2023-06-10T13:21:30;28.90;56.70
4433;DHT22;2229;48.708;9.706;2023-06-10T13:23:57;28.90;57.20
4433;DHT22;2229;48.708;9.706;2023-06-10T13:26:25;28.90;57.10
4433;DHT22;2229;48.708;9.706;2023-06-10T13:28:52;28.90;57.20
4433;DHT22;2229;48.708;9.706;2023-06-10T13:31:19;28.80;57.30
4433;DHT22;2229;48.708;9.706;2023-06-10T13:33:46;28.60;57.30
4433;DHT22;2229;48.708;9.706;2023-06-10T13:36:14;28.60;57.50
4433;DHT22;2229;48.708;9.706;2023-06-10T13:38:42;28.70;57.80
4433;DHT22;2229;48.708;9.706;2023-06-10T13:41:09;28.80;58.00
4433;DHT22;2229;48.708;9.706;2023-06-10T13:43:38;29.00;58.20
4433;DHT22;2229;48.708;9.706;2023-06-10T13:46:06;29.30;58.30
4433;DHT22;2229;48.708;9.706;2023-06-10T13:48:33;29.40;58.50
4433;DHT22;2229;48.708;9.706;2023-06-10T13:51:01;29.40;58.40
4433;DHT22;2229;48.708;9.706;2023-06-10T13:53:28;29.40;58.20
4433;DHT22;2229;48.708;9.706;2023-06-10T13:55:57;29.20;57.40
4433;DHT22;2229;48.708;9.706;2023-06-10T13:58:25;29.00;57.60
4433;DHT22;2229;48.708;9.706;2023-06-10T14:00:52;28.80;58.10
4433;DHT22;2229;48.708;9.706;2023-06-10T14:03:19;28.80;58.40
4433;DHT22;2229;48.708;9.706;2023-06-10T14:05:47;28.80;58.30
4433;DHT22;2229;48.708;9.706;2023-06-10T14:08:14;28.90;58.40
4433;DHT22;2229;48.708;9.706;2023-06-10T14:10:41;28.90;58.20
4433;DHT22;2229;48.708;9.706;2023-06-10T14:13:10;29.10;58.00
4433;DHT22;2229;48.708;9.706;2023-06-10T14:15:37;29.30;58.00
4433;DHT22;2229;48.708;9.706;2023-06-10T14:18:04;29.30;57.50
4433;DHT22;2229;48.708;9.706;2023-06-10T14:20:32;29.30;57.10
4433;DHT22;2229;48.708;9.706;2023-06-10T14:23:00;29.10;57.10
4433;DHT22;2229;48.708;9.706;2023-06-10T14:25:29;28.90;57.20
4433;DHT22;2229;48.708;9.706;2023-06-10T14:27:57;28.90;57.80
4433;DHT22;2229;48.708;9.706;2023-06-10T14:30:26;28.90;57.80
4433;DHT22;2229;48.708;9.706;2023-06-10T14:32:53;28.90;57.50
4433;DHT22;2229;48.708;9.706;2023-06-10T14:35:24;28.80;57.10
4433;DHT22;2229;48.708;9.706;2023-06-10T14:37:51;28.60;57.00
4433;DHT22;2229;48.708;9.706;2023-06-10T14:40:19;28.50;57.50
4433;DHT22;2229;48.708;9.706;2023-06-10T14:42:47;28.50;57.60
4433;DHT22;2229;48.708;9.706;2023-06-10T14:45:14;28.40;57.80
4433;DHT22;2229;48.708;9.706;2023-06-10T14:47:43;28.50;57.40
4433;DHT22;2229;48.708;9.706;2023-06-10T14:50:13;28.50;57.70
4433;DHT22;2229;48.708;9.706;2023-06-10T14:52:40;28.60;57.80
4433;DHT22;2229;48.708;9.706;2023-06-10T14:55:08;28.70;57.90
4433;DHT22;2229;48.708;9.706;2023-06-10T14:57:36;28.70;57.30
4433;DHT22;2229;48.708;9.706;2023-06-10T15:00:13;28.80;57.30
4433;DHT22;2229;48.708;9.706;2023-06-10T15:02:48;28.80;56.40
4433;DHT22;2229;48.708;9.706;2023-06-10T15:05:16;28.90;56.70
4433;DHT22;2229;48.708;9.706;2023-06-10T15:07:45;29.00;56.90
4433;DHT22;2229;48.708;9.706;2023-06-10T15:10:13;29.10;57.20
4433;DHT22;2229;48.708;9.706;2023-06-10T15:12:40;29.20;57.20
4433;DHT22;2229;48.708;9.706;2023-06-10T15:15:07;29.30;57.20
4433;DHT22;2229;48.708;9.706;2023-06-10T15:17:35;29.40;56.80
4433;DHT22;2229;48.708;9.706;2023-06-10T15:20:04;29.50;56.90
4433;DHT22;2229;48.708;9.706;2023-06-10T15:22:33;29.50;56.50
4433;DHT22;2229;48.708;9.706;2023-06-10T15:25:00;29.60;57.10
4433;DHT22;2229;48.708;9.706;2023-06-10T15:27:28;29.60;56.40
4433;DHT22;2229;48.708;9.706;2023-06-10T15:29:56;29.60;56.20
4433;DHT22;2229;48.708;9.706;2023-06-10T15:32:23;29.60;56.00
4433;DHT22;2229;48.708;9.706;2023-06-10T15:34:51;29.60;56.10
4433;DHT22;2229;48.708;9.706;2023-06-10T15:37:21;29.60;55.80
4433;DHT22;2229;48.708;9.706;2023-06-10T15:39:48;29.50;55.60
4433;DHT22;2229;48.708;9.706;2023-06-10T15:42:15;29.50;55.70
4433;DHT22;2229;48.708;9.706;2023-06-10T15:44:42;29.50;56.20
4433;DHT22;2229;48.708;9.706;2023-06-10T15:47:09;29.50;56.30
4433;DHT22;2229;48.708;9.706;2023-06-10T15:49:37;29.50;56.30
4433;DHT22;2229;48.708;9.706;2023-06-10T15:52:04;29.60;56.50
4433;DHT22;2229;48.708;9.706;2023-06-10T15:54:33;29.60;56.40
4433;DHT22;2229;48.708;9.706;2023-06-10T15:57:00;29.70;56.00
4433;DHT22;2229;48.708;9.706;2023-06-10T15:59:29;29.60;55.80
4433;DHT22;2229;48.708;9.706;2023-06-10T16:01:56;29.60;56.00
4433;DHT22;2229;48.708;9.706;2023-06-10T16:04:24;29.50;55.70
4433;DHT22;2229;48.708;9.706;2023-06-10T16:06:51;29.40;56.00
4433;DHT22;2229;48.708;9.706;2023-06-10T16:09:20;29.40;56.30
4433;DHT22;2229;48.708;9.706;2023-06-10T16:11:49;29.30;55.70
4433;DHT22;2229;48.708;9.706;2023-06-10T16:14:16;29.20;56.00